createdAt,value
2018-08-18T00:00:27.563Z,3.60
2018-08-18T00:02:54.010Z,3.47
2018-08-18T00:05:20.454Z,3.63
2018-08-18T00:07:47.075Z,3.73
2018-08-18T00:10:15.314Z,2.90
2018-08-18T00:12:41.738Z,3.10
2018-08-18T00:15:08.523Z,3.00
2018-08-18T00:17:35.427Z,4.57
2018-08-18T00:20:01.866Z,4.13
2018-08-18T00:22:28.696Z,4.50
2018-08-18T00:24:58.139Z,4.20
2018-08-18T00:27:24.866Z,4.27
2018-08-18T00:29:51.318Z,3.13
2018-08-18T00:32:17.766Z,3.10
2018-08-18T00:34:50.847Z,3.90
2018-08-18T00:37:17.283Z,3.83
2018-08-18T00:39:43.702Z,4.20
2018-08-18T00:42:10.135Z,2.30
2018-08-18T00:44:36.571Z,4.60
2018-08-18T00:47:03.047Z,3.90
2018-08-18T00:49:29.474Z,2.70
2018-08-18T00:51:55.927Z,5.40
2018-08-18T00:54:22.354Z,1.93
2018-08-18T00:56:48.794Z,2.80
2018-08-18T00:59:15.235Z,4.57
2018-08-18T01:01:42.413Z,3.27
2018-08-18T01:04:08.970Z,2.80
2018-08-18T01:06:36.720Z,3.60
2018-08-18T01:09:05.742Z,4.97
2018-08-18T01:11:33.151Z,5.13
2018-08-18T01:14:06.983Z,2.33
2018-08-18T01:16:33.413Z,4.27
2018-08-18T01:18:59.858Z,2.07
2018-08-18T01:21:26.303Z,3.13
2018-08-18T01:23:53.137Z,4.00
2018-08-18T01:26:19.603Z,4.90
2018-08-18T01:28:46.051Z,3.93
2018-08-18T01:31:15.340Z,3.20
2018-08-18T01:33:41.759Z,2.13
2018-08-18T01:36:08.195Z,2.87
2018-08-18T01:38:36.169Z,3.20
2018-08-18T01:41:10.831Z,3.60
2018-08-18T01:43:37.296Z,4.80
2018-08-18T01:46:03.777Z,2.67
2018-08-18T01:48:30.229Z,4.17
2018-08-18T01:51:01.335Z,2.27
2018-08-18T01:53:27.774Z,2.90
2018-08-18T01:55:54.210Z,2.47
2018-08-18T01:58:20.642Z,2.13
2018-08-18T02:00:47.073Z,4.20
2018-08-18T02:03:13.533Z,3.53
2018-08-18T02:05:40.931Z,2.93
2018-08-18T02:08:07.363Z,2.67
2018-08-18T02:10:33.786Z,3.63
2018-08-18T02:13:01.726Z,2.13
2018-08-18T02:15:28.295Z,3.53
2018-08-18T02:17:54.740Z,3.60
2018-08-18T02:20:21.187Z,2.57
2018-08-18T02:22:47.619Z,3.17
2018-08-18T02:25:15.034Z,1.87
2018-08-18T02:27:42.143Z,2.90
2018-08-18T02:30:13.574Z,1.63
2018-08-18T02:32:41.129Z,3.40
2018-08-18T02:35:08.031Z,3.07
2018-08-18T02:37:34.579Z,2.00
2018-08-18T02:40:01.064Z,1.87
2018-08-18T02:42:28.082Z,2.23
2018-08-18T02:44:54.515Z,2.00
2018-08-18T02:47:21.414Z,2.17
2018-08-18T02:49:48.978Z,2.67
2018-08-18T02:52:20.031Z,2.77
2018-08-18T02:54:46.454Z,1.83
2018-08-18T02:57:12.952Z,2.97
2018-08-18T02:59:39.371Z,3.60
2018-08-18T03:02:05.848Z,2.50
2018-08-18T03:04:36.894Z,3.00
2018-08-18T03:07:03.945Z,2.37
2018-08-18T03:09:30.424Z,2.17
2018-08-18T03:11:56.863Z,6.57
2018-08-18T03:14:23.387Z,4.70
2018-08-18T03:16:49.842Z,4.50
2018-08-18T03:19:16.271Z,1.97
2018-08-18T03:21:43.099Z,3.77
2018-08-18T03:24:13.906Z,3.30
2018-08-18T03:26:57.089Z,2.63
2018-08-18T03:29:24.827Z,3.47
2018-08-18T03:31:51.571Z,2.53
2018-08-18T03:34:18.306Z,3.43
2018-08-18T03:36:46.258Z,3.40
2018-08-18T03:39:20.812Z,2.63
2018-08-18T03:41:47.354Z,1.53
2018-08-18T03:44:13.807Z,1.57
2018-08-18T03:46:40.226Z,2.40
2018-08-18T03:49:06.654Z,1.73
2018-08-18T03:51:38.698Z,2.97
2018-08-18T03:54:05.133Z,2.00
2018-08-18T03:56:31.555Z,1.60
2018-08-18T03:58:58.610Z,1.77
2018-08-18T04:01:46.153Z,2.20
2018-08-18T04:04:13.702Z,3.07
2018-08-18T04:06:41.254Z,1.97
2018-08-18T04:09:09.803Z,2.97
2018-08-18T04:11:36.799Z,1.60
2018-08-18T04:14:03.240Z,1.43
2018-08-18T04:16:29.674Z,3.43
2018-08-18T04:19:00.546Z,2.10
2018-08-18T04:21:26.971Z,1.67
2018-08-18T04:23:53.422Z,1.63
2018-08-18T04:26:19.858Z,1.73
2018-08-18T04:28:46.315Z,2.00
2018-08-18T04:31:24.076Z,2.83
2018-08-18T04:33:50.539Z,1.83
2018-08-18T04:36:16.966Z,1.73
2018-08-18T04:38:43.410Z,2.33
2018-08-18T04:41:09.846Z,2.97
2018-08-18T04:43:36.291Z,2.17
2018-08-18T04:46:02.731Z,1.97
2018-08-18T04:48:30.051Z,1.67
2018-08-18T04:50:56.575Z,1.63
2018-08-18T04:53:22.994Z,2.40
2018-08-18T04:55:49.445Z,1.93
2018-08-18T04:58:15.875Z,1.80
2018-08-18T05:00:42.323Z,2.53
2018-08-18T05:03:08.894Z,1.57
2018-08-18T05:05:35.338Z,1.73
2018-08-18T05:08:01.768Z,1.73
2018-08-18T05:10:28.476Z,1.97
2018-08-18T05:12:54.912Z,1.70
2018-08-18T05:15:21.343Z,1.43
2018-08-18T05:17:49.074Z,1.80
2018-08-18T05:20:16.934Z,3.23
2018-08-18T05:22:43.359Z,2.37
2018-08-18T05:25:09.798Z,2.43
2018-08-18T05:27:36.230Z,1.67
2018-08-18T05:30:02.698Z,1.87
2018-08-18T05:32:29.123Z,1.60
2018-08-18T05:34:55.595Z,1.63
2018-08-18T05:37:22.067Z,1.90
2018-08-18T05:39:48.502Z,2.17
2018-08-18T05:42:14.935Z,1.80
2018-08-18T05:44:41.423Z,2.63
2018-08-18T05:47:07.851Z,1.90
2018-08-18T05:49:34.287Z,2.30
2018-08-18T05:52:00.762Z,1.30
2018-08-18T05:54:27.266Z,1.70
2018-08-18T05:56:53.784Z,1.97
2018-08-18T05:59:20.214Z,1.60
2018-08-18T06:01:46.695Z,1.70
2018-08-18T06:04:14.507Z,1.70
2018-08-18T06:06:41.566Z,1.50
2018-08-18T06:09:09.413Z,2.83
2018-08-18T06:11:35.923Z,2.27
2018-08-18T06:14:02.407Z,2.13
2018-08-18T06:16:28.844Z,1.60
2018-08-18T06:18:55.295Z,1.40
2018-08-18T06:21:21.743Z,1.43
2018-08-18T06:23:48.191Z,1.60
2018-08-18T06:26:14.632Z,1.57
2018-08-18T06:28:41.062Z,1.40
2018-08-18T06:31:07.518Z,2.63
2018-08-18T06:33:33.946Z,2.17
2018-08-18T06:36:01.036Z,1.40
2018-08-18T06:38:27.480Z,1.70
2018-08-18T06:40:56.929Z,1.33
2018-08-18T06:43:23.354Z,1.53
2018-08-18T06:45:49.811Z,1.40
2018-08-18T06:48:20.134Z,2.47
2018-08-18T06:50:46.606Z,2.03
2018-08-18T06:53:13.069Z,1.77
2018-08-18T06:55:39.514Z,1.50
2018-08-18T06:58:05.975Z,1.20
2018-08-18T07:00:32.398Z,1.87
2018-08-18T07:02:58.825Z,12.50
2018-08-18T07:05:25.245Z,2.50
2018-08-18T07:07:51.688Z,2.47
2018-08-18T07:10:30.478Z,2.17
2018-08-18T07:12:59.690Z,1.40
2018-08-18T07:15:27.555Z,4.77
2018-08-18T07:17:54.022Z,2.07
2018-08-18T07:20:21.113Z,3.67
2018-08-18T07:22:47.667Z,2.63
2018-08-18T07:25:15.128Z,5.77
2018-08-18T07:27:41.586Z,4.73
2018-08-18T07:30:08.029Z,6.67
2018-08-18T07:32:34.735Z,6.20
2018-08-18T07:35:01.279Z,5.70
2018-08-18T07:37:27.766Z,6.77
2018-08-18T07:39:54.191Z,4.30
2018-08-18T07:42:20.627Z,6.53
2018-08-18T07:44:47.047Z,6.77
2018-08-18T07:47:13.874Z,4.53
2018-08-18T07:49:40.284Z,6.00
2018-08-18T07:52:06.763Z,7.80
2018-08-18T07:54:33.190Z,2.67
2018-08-18T07:56:59.631Z,2.63
2018-08-18T07:59:26.069Z,3.07
2018-08-18T08:01:52.499Z,3.93
2018-08-18T08:04:18.923Z,2.37
2018-08-18T08:06:45.356Z,2.13
2018-08-18T08:09:11.771Z,3.10
2018-08-18T08:11:38.198Z,4.30
2018-08-18T08:14:04.638Z,5.73
2018-08-18T08:16:31.062Z,4.03
2018-08-18T08:18:57.541Z,3.57
2018-08-18T08:21:23.962Z,4.00
2018-08-18T08:23:50.413Z,4.90
2018-08-18T08:26:16.911Z,3.87
2018-08-18T08:28:43.363Z,12.73
2018-08-18T08:31:09.830Z,5.57
2018-08-18T08:33:37.085Z,3.13
2018-08-18T08:36:12.659Z,3.80
2018-08-18T08:38:44.792Z,2.53
2018-08-18T08:41:11.707Z,3.93
2018-08-18T08:43:38.191Z,6.73
2018-08-18T08:46:04.719Z,8.63
2018-08-18T08:48:31.164Z,5.40
2018-08-18T08:50:57.598Z,3.90
2018-08-18T08:53:24.191Z,7.10
2018-08-18T08:55:50.689Z,3.83
2018-08-18T08:58:17.220Z,4.60
2018-08-18T09:00:43.670Z,4.57
2018-08-18T09:03:10.147Z,5.03
2018-08-18T09:05:36.632Z,5.10
2018-08-18T09:08:03.184Z,4.07
2018-08-18T09:10:29.775Z,7.47
2018-08-18T09:12:56.383Z,6.57
2018-08-18T09:15:22.814Z,5.27
2018-08-18T09:17:49.346Z,5.07
2018-08-18T09:20:17.247Z,6.37
2018-08-18T09:22:49.383Z,4.23
2018-08-18T09:25:15.892Z,6.67
2018-08-18T09:27:46.975Z,4.23
2018-08-18T09:30:13.391Z,6.77
2018-08-18T09:32:39.842Z,4.23
2018-08-18T09:35:06.256Z,3.90
2018-08-18T09:37:32.698Z,10.77
2018-08-18T09:39:59.141Z,9.47
2018-08-18T09:42:25.704Z,10.30
2018-08-18T09:44:53.092Z,8.50
2018-08-18T09:47:19.684Z,18.73
2018-08-18T09:49:46.150Z,6.27
2018-08-18T09:52:13.192Z,7.67
2018-08-18T10:05:33.273Z,6.43
2018-08-18T10:08:00.270Z,4.57
2018-08-18T10:10:27.554Z,4.70
2018-08-18T10:12:54.516Z,4.40
2018-08-18T10:15:21.469Z,4.87
2018-08-18T10:17:48.360Z,5.87
2018-08-18T10:20:15.299Z,5.40
2018-08-18T10:22:42.204Z,6.50
2018-08-18T10:25:09.137Z,4.43
2018-08-18T10:27:42.785Z,4.23
2018-08-18T10:30:09.742Z,3.80
2018-08-18T10:32:45.218Z,5.70
2018-08-18T10:35:16.752Z,6.80
2018-08-18T10:37:43.634Z,5.13
2018-08-18T10:40:10.569Z,6.60
2018-08-18T10:42:37.516Z,4.90
2018-08-18T10:45:05.834Z,5.07
2018-08-18T10:47:32.716Z,6.00
2018-08-18T10:50:11.192Z,4.80
2018-08-18T10:52:49.708Z,5.10
2018-08-18T10:55:17.534Z,3.83
2018-08-18T10:57:58.592Z,3.60
2018-08-18T11:00:26.788Z,5.23
2018-08-18T11:02:54.943Z,4.23
2018-08-18T11:05:22.712Z,7.17
2018-08-18T11:07:56.327Z,4.20
2018-08-18T11:10:25.720Z,3.30
2018-08-18T11:12:52.652Z,5.53
2018-08-18T11:15:19.607Z,4.17
2018-08-18T11:17:46.522Z,4.77
2018-08-18T11:20:16.384Z,4.80
2018-08-18T11:23:02.079Z,5.37
2018-08-18T11:25:33.149Z,3.10
2018-08-18T11:28:00.249Z,5.83
2018-08-18T11:30:27.272Z,4.87
2018-08-18T11:32:55.291Z,3.37
2018-08-18T11:35:22.277Z,5.13
2018-08-18T11:38:01.361Z,6.43
2018-08-18T11:40:28.385Z,6.00
2018-08-18T11:42:57.601Z,4.90
2018-08-18T11:45:26.404Z,5.27
2018-08-18T11:48:11.456Z,3.63
2018-08-18T11:50:38.719Z,3.73
2018-08-18T11:53:05.769Z,5.07
2018-08-18T11:55:32.705Z,5.57
2018-08-18T11:58:02.476Z,3.10
2018-08-18T12:00:31.245Z,4.70
2018-08-18T12:03:02.192Z,4.20
2018-08-18T12:05:31.084Z,4.23
2018-08-18T12:07:57.983Z,3.93
2018-08-18T12:10:24.903Z,3.97
2018-08-18T12:12:51.817Z,5.77
2018-08-18T12:15:18.728Z,6.20
2018-08-18T12:17:55.048Z,3.67
2018-08-18T12:20:22.475Z,5.10
2018-08-18T12:22:50.428Z,3.87
2018-08-18T12:25:17.375Z,3.30
2018-08-18T12:27:44.316Z,3.60
2018-08-18T12:30:23.504Z,7.10
2018-08-18T12:32:50.417Z,6.43
2018-08-18T12:35:17.362Z,4.57
2018-08-18T12:37:44.291Z,6.07
2018-08-18T12:40:11.269Z,4.60
2018-08-18T12:42:38.184Z,5.93
2018-08-18T12:45:05.134Z,4.40
2018-08-18T12:47:32.175Z,5.93
2018-08-18T12:49:59.165Z,6.20
2018-08-18T12:52:26.767Z,6.43
2018-08-18T12:54:53.668Z,6.33
2018-08-18T12:57:32.272Z,3.87
2018-08-18T12:59:59.189Z,4.97
2018-08-18T13:02:36.507Z,6.57
2018-08-18T13:05:03.462Z,5.67
2018-08-18T13:07:34.984Z,7.57
2018-08-18T13:10:12.341Z,5.33
2018-08-18T13:12:39.256Z,7.77
2018-08-18T13:15:06.241Z,7.27
2018-08-18T13:17:33.157Z,7.07
2018-08-18T13:20:00.090Z,6.03
2018-08-18T13:22:27.016Z,6.97
2018-08-18T13:24:53.928Z,4.27
2018-08-18T13:27:20.857Z,4.50
2018-08-18T13:29:47.770Z,6.07
2018-08-18T13:32:14.705Z,4.77
2018-08-18T13:34:41.627Z,3.77
2018-08-18T13:37:08.556Z,7.93
2018-08-18T13:39:35.494Z,4.03
2018-08-18T13:42:18.172Z,6.47
2018-08-18T13:44:45.074Z,6.17
2018-08-18T13:47:12.046Z,4.90
2018-08-18T13:49:38.932Z,3.37
2018-08-18T13:52:05.868Z,4.40
2018-08-18T13:54:33.061Z,8.17
2018-08-18T13:56:59.979Z,7.50
2018-08-18T13:59:40.184Z,5.17
2018-08-18T14:02:07.849Z,4.37
2018-08-18T14:04:34.770Z,6.83
2018-08-18T14:07:01.697Z,3.83
2018-08-18T14:09:28.597Z,8.03
2018-08-18T14:12:01.380Z,6.07
2018-08-18T14:14:28.308Z,3.90
2018-08-18T14:16:55.244Z,4.77
2018-08-18T14:19:22.158Z,5.57
2018-08-18T14:21:53.710Z,10.10
2018-08-18T14:24:25.236Z,3.60
2018-08-18T14:27:00.024Z,8.20
2018-08-18T14:29:33.962Z,8.50
2018-08-18T14:32:01.468Z,7.03
2018-08-18T14:34:28.546Z,6.03
2018-08-18T14:37:00.201Z,4.60
2018-08-18T14:39:37.243Z,5.43
2018-08-18T14:42:04.667Z,4.93
2018-08-18T14:44:31.596Z,6.07
2018-08-18T14:46:58.537Z,6.17
2018-08-18T14:49:25.454Z,5.20
2018-08-18T14:51:52.364Z,5.03
2018-08-18T14:54:23.435Z,5.43
2018-08-18T14:56:50.336Z,4.37
2018-08-18T14:59:17.755Z,6.50
2018-08-18T15:01:44.683Z,6.10
2018-08-18T15:04:11.664Z,6.13
2018-08-18T15:06:38.536Z,4.40
2018-08-18T15:09:05.465Z,5.10
2018-08-18T15:11:32.364Z,6.37
2018-08-18T15:13:59.320Z,8.77
2018-08-18T15:16:26.223Z,4.57
2018-08-18T15:18:53.137Z,6.33
2018-08-18T15:21:20.030Z,7.83
2018-08-18T15:23:46.939Z,4.67
2018-08-18T15:26:13.828Z,4.23
2018-08-18T15:28:40.724Z,6.93
2018-08-18T15:31:07.652Z,6.77
2018-08-18T15:33:34.593Z,4.93
2018-08-18T15:36:01.496Z,6.60
2018-08-18T15:38:41.802Z,8.67
2018-08-18T15:41:09.184Z,4.20
2018-08-18T15:43:36.068Z,4.40
2018-08-18T15:46:04.040Z,7.63
2018-08-18T15:48:31.072Z,6.53
2018-08-18T15:50:57.969Z,7.23
2018-08-18T15:53:58.740Z,4.20
2018-08-18T15:56:26.547Z,6.97
2018-08-18T15:58:54.341Z,6.57
2018-08-18T16:01:22.794Z,5.33
2018-08-18T16:03:50.256Z,5.57
2018-08-18T16:06:17.170Z,4.50
2018-08-18T16:08:44.076Z,6.67
2018-08-18T16:11:10.966Z,5.90
2018-08-18T16:13:37.863Z,3.93
2018-08-18T16:16:04.816Z,6.47
2018-08-18T16:18:31.760Z,4.57
2018-08-18T16:21:02.280Z,3.57
2018-08-18T16:23:29.204Z,4.47
2018-08-18T16:25:56.161Z,7.30
2018-08-18T16:28:29.605Z,4.90
2018-08-18T16:30:56.522Z,6.10
2018-08-18T16:33:23.421Z,4.57
2018-08-18T16:35:50.324Z,4.53
2018-08-18T16:38:17.860Z,4.13
2018-08-18T16:40:44.765Z,7.47
2018-08-18T16:43:12.963Z,6.60
2018-08-18T16:45:39.892Z,6.73
2018-08-18T16:48:08.061Z,4.77
2018-08-18T16:50:36.068Z,5.10
2018-08-18T16:53:04.241Z,6.87
2018-08-18T16:55:32.732Z,7.77
2018-08-18T16:57:59.642Z,6.00
2018-08-18T17:00:26.557Z,5.87
2018-08-18T17:02:53.457Z,13.27
2018-08-18T17:05:20.482Z,7.53
2018-08-18T17:07:47.392Z,7.13
2018-08-18T17:10:14.296Z,8.07
2018-08-18T17:12:41.196Z,6.23
2018-08-18T17:15:08.122Z,7.97
2018-08-18T17:17:35.033Z,8.13
2018-08-18T17:20:02.138Z,9.43
2018-08-18T17:22:29.044Z,9.33
2018-08-18T17:24:56.052Z,9.97
2018-08-18T17:27:23.052Z,5.17
2018-08-18T17:29:51.243Z,8.87
2018-08-18T17:32:18.177Z,7.77
2018-08-18T17:34:45.164Z,9.83
2018-08-18T17:37:12.108Z,11.93
2018-08-18T17:39:39.082Z,7.10
2018-08-18T17:42:06.001Z,8.43
2018-08-18T17:44:32.937Z,9.40
2018-08-18T17:47:04.477Z,5.40
2018-08-18T17:49:34.730Z,13.20
2018-08-18T17:52:08.286Z,13.23
2018-08-18T17:54:36.663Z,14.30
2018-08-18T17:57:04.216Z,10.53
2018-08-18T17:59:31.215Z,11.10
2018-08-18T18:02:05.083Z,10.70
2018-08-18T18:04:32.298Z,12.30
2018-08-18T18:06:59.882Z,10.67
2018-08-18T18:09:29.101Z,9.30
2018-08-18T18:11:56.392Z,12.00
2018-08-18T18:14:23.316Z,11.67
2018-08-18T18:16:50.277Z,9.33
2018-08-18T18:19:17.166Z,8.53
2018-08-18T18:21:44.450Z,16.27
2018-08-18T18:24:11.417Z,13.17
2018-08-18T18:26:38.665Z,8.03
2018-08-18T18:29:06.016Z,9.43
2018-08-18T18:31:32.924Z,10.40
2018-08-18T18:34:02.535Z,7.60
2018-08-18T18:36:30.196Z,12.47
2018-08-18T18:38:57.382Z,11.37
2018-08-18T18:41:24.629Z,9.37
2018-08-18T18:43:59.890Z,13.43
2018-08-18T18:46:27.034Z,13.47
2018-08-18T18:48:53.992Z,10.43
2018-08-18T18:51:21.022Z,11.10
2018-08-18T18:53:49.585Z,9.43
2018-08-18T18:56:16.554Z,11.87
2018-08-18T18:58:43.444Z,12.80
2018-08-18T19:01:11.478Z,14.57
2018-08-18T19:03:38.334Z,10.30
2018-08-18T19:06:05.246Z,11.47
2018-08-18T19:08:33.284Z,14.57
2018-08-18T19:11:01.924Z,13.03
2018-08-18T19:13:29.085Z,13.97
2018-08-18T19:15:56.032Z,11.03
2018-08-18T19:18:22.916Z,14.90
2018-08-18T19:20:49.849Z,12.70
2018-08-18T19:23:17.863Z,9.23
2018-08-18T19:25:46.048Z,9.23
2018-08-18T19:28:15.653Z,10.70
2018-08-18T19:30:42.549Z,8.80
2018-08-18T19:33:10.027Z,10.13
2018-08-18T19:35:39.690Z,15.30
2018-08-18T19:38:06.604Z,13.53
2018-08-18T19:40:34.522Z,14.33
2018-08-18T19:43:01.413Z,11.17
2018-08-18T19:45:28.308Z,10.83
2018-08-18T19:47:55.216Z,10.30
2018-08-18T19:50:22.100Z,11.10
2018-08-18T19:52:50.726Z,11.63
2018-08-18T19:55:17.588Z,10.90
2018-08-18T19:57:44.485Z,11.73
2018-08-18T20:00:17.818Z,12.63
2018-08-18T20:02:58.715Z,12.30
2018-08-18T20:05:25.628Z,9.43
2018-08-18T20:07:52.539Z,10.97
2018-08-18T20:10:19.506Z,14.77
2018-08-18T20:12:46.456Z,13.10
2018-08-18T20:15:13.653Z,16.00
2018-08-18T20:17:41.119Z,11.27
2018-08-18T20:20:08.108Z,12.70
2018-08-18T20:22:35.038Z,18.40
2018-08-18T20:25:02.464Z,15.57
2018-08-18T20:27:29.633Z,14.17
2018-08-18T20:29:56.617Z,13.67
2018-08-18T20:32:23.553Z,11.30
2018-08-18T20:34:50.506Z,13.13
2018-08-18T20:37:17.416Z,14.90
2018-08-18T20:39:44.479Z,12.57
2018-08-18T20:42:11.415Z,14.03
2018-08-18T20:44:38.327Z,14.87
2018-08-18T20:47:05.840Z,17.00
2018-08-18T20:49:32.763Z,16.73
2018-08-18T20:51:59.713Z,15.20
2018-08-18T20:54:26.700Z,16.47
2018-08-18T20:56:53.619Z,14.73
2018-08-18T20:59:20.573Z,18.43
2018-08-18T21:01:47.476Z,18.40
2018-08-18T21:04:14.404Z,15.27
2018-08-18T21:06:41.329Z,16.20
2018-08-18T21:09:22.097Z,14.30
2018-08-18T21:11:49.014Z,14.17
2018-08-18T21:14:15.944Z,16.87
2018-08-18T21:16:42.856Z,13.97
2018-08-18T21:19:09.754Z,18.70
2018-08-18T21:21:36.635Z,16.60
2018-08-18T21:24:03.840Z,17.03
2018-08-18T21:26:30.831Z,16.70
2018-08-18T21:28:57.933Z,20.30
2018-08-18T21:31:30.702Z,21.27
2018-08-18T21:33:59.412Z,20.20
2018-08-18T21:36:26.549Z,19.77
2018-08-18T21:38:53.445Z,13.93
2018-08-18T21:41:20.362Z,14.67
2018-08-18T21:43:47.236Z,16.80
2018-08-18T21:46:14.124Z,13.47
2018-08-18T21:48:47.182Z,16.50
2018-08-18T21:51:14.148Z,16.00
2018-08-18T21:53:41.332Z,17.50
2018-08-18T21:56:08.309Z,18.50
2018-08-18T21:58:35.212Z,12.87
2018-08-18T22:01:07.756Z,16.03
2018-08-18T22:03:34.656Z,14.97
2018-08-18T22:06:01.598Z,15.30
2018-08-18T22:08:28.504Z,14.67
2018-08-18T22:10:55.820Z,12.60
2018-08-18T22:13:22.916Z,16.17
2018-08-18T22:15:49.813Z,13.63
2018-08-18T22:18:16.744Z,16.83
2018-08-18T22:20:43.683Z,16.20
2018-08-18T22:23:10.604Z,13.27
2018-08-18T22:25:37.544Z,18.60
2018-08-18T22:28:04.492Z,17.00
2018-08-18T22:30:31.420Z,17.10
2018-08-18T22:32:58.327Z,13.43
2018-08-18T22:35:25.253Z,15.53
2018-08-18T22:37:52.171Z,11.33
2018-08-18T22:40:19.132Z,18.53
2018-08-18T22:42:46.065Z,16.50
2018-08-18T22:45:21.420Z,16.07
2018-08-18T22:47:48.332Z,17.77
2018-08-18T22:50:15.347Z,15.40
2018-08-18T22:52:45.141Z,16.20
2018-08-18T22:55:12.076Z,14.37
2018-08-18T22:57:41.066Z,18.57
2018-08-18T23:00:08.053Z,14.47
2018-08-18T23:02:34.971Z,16.27
2018-08-18T23:05:01.884Z,15.00
2018-08-18T23:07:28.812Z,14.33
2018-08-18T23:09:55.736Z,15.03
2018-08-18T23:12:22.668Z,21.77
2018-08-18T23:14:49.578Z,20.43
2018-08-18T23:17:16.490Z,16.43
2018-08-18T23:19:43.436Z,13.80
2018-08-18T23:22:22.121Z,14.33
2018-08-18T23:24:49.056Z,15.03
2018-08-18T23:27:16.008Z,13.87
2018-08-18T23:29:42.934Z,16.77
2018-08-18T23:32:15.831Z,14.77
2018-08-18T23:34:42.765Z,15.60
2018-08-18T23:37:15.212Z,16.23
2018-08-18T23:39:42.128Z,13.17
2018-08-18T23:42:16.737Z,14.20
2018-08-18T23:44:43.708Z,15.00
2018-08-18T23:47:10.656Z,16.87
2018-08-18T23:49:37.688Z,14.03
2018-08-18T23:52:04.689Z,15.37
2018-08-18T23:54:32.436Z,18.47
2018-08-18T23:56:59.361Z,15.13
2018-08-18T23:59:26.263Z,16.80
